createdAt,value
2023-01-17T00:01:29.512Z,24.57
2023-01-17T00:04:15.292Z,24.08
2023-01-17T00:07:01.240Z,21.51
2023-01-17T00:09:46.903Z,23.72
2023-01-17T00:12:14.137Z,23.66
2023-01-17T00:14:41.353Z,23.59
2023-01-17T00:17:08.733Z,24.10
2023-01-17T00:19:54.357Z,23.90
2023-01-17T00:22:41.958Z,22.91
2023-01-17T00:25:31.736Z,24.24
2023-01-17T00:27:59.316Z,23.74
2023-01-17T00:30:26.518Z,24.73
2023-01-17T00:32:53.686Z,22.44
2023-01-17T00:35:22.296Z,23.51
2023-01-17T00:37:49.683Z,23.42
2023-01-17T00:40:16.896Z,24.45
2023-01-17T00:42:44.133Z,22.20
2023-01-17T00:45:29.770Z,23.17
2023-01-17T00:48:15.613Z,24.68
2023-01-17T00:51:01.342Z,22.54
2023-01-17T00:53:47.401Z,23.09
2023-01-17T00:56:32.854Z,23.88
2023-01-17T00:59:18.920Z,23.83
2023-01-17T01:02:29.636Z,23.55
2023-01-17T01:05:15.518Z,23.15
2023-01-17T01:08:01.862Z,23.72
2023-01-17T01:10:48.500Z,24.52
2023-01-17T01:13:34.367Z,23.39
2023-01-17T01:16:21.228Z,24.21
2023-01-17T01:19:07.903Z,24.69
2023-01-17T01:21:53.799Z,23.61
2023-01-17T01:24:39.451Z,23.32
2023-01-17T01:27:26.114Z,23.06
2023-01-17T01:30:11.699Z,24.57
2023-01-17T01:32:57.725Z,23.75
2023-01-17T01:35:25.233Z,23.00
2023-01-17T01:37:52.461Z,23.51
2023-01-17T01:40:19.957Z,24.32
2023-01-17T01:42:54.574Z,24.02
2023-01-17T01:45:23.353Z,24.09
2023-01-17T01:47:51.756Z,23.22
2023-01-17T01:50:19.996Z,24.16
2023-01-17T01:52:48.630Z,22.26
2023-01-17T01:55:19.462Z,23.82
2023-01-17T01:57:48.799Z,23.67
2023-01-17T02:00:18.910Z,23.95
2023-01-17T02:02:47.611Z,24.31
2023-01-17T02:05:16.596Z,23.80
2023-01-17T02:07:48.994Z,23.59
2023-01-17T02:10:16.480Z,23.13
2023-01-17T02:12:44.338Z,23.19
2023-01-17T02:15:11.757Z,23.05
2023-01-17T02:17:57.843Z,23.73
2023-01-17T02:20:38.329Z,24.78
2023-01-17T02:23:05.693Z,23.33
2023-01-17T02:25:57.403Z,23.54
2023-01-17T02:28:24.805Z,24.03
2023-01-17T02:30:59.031Z,23.53
2023-01-17T02:33:26.421Z,23.62
2023-01-17T02:35:58.588Z,24.26
2023-01-17T02:38:35.003Z,23.05
2023-01-17T02:41:25.608Z,24.88
2023-01-17T02:43:53.938Z,24.19
2023-01-17T02:46:21.163Z,23.65
2023-01-17T02:48:49.164Z,25.04
2023-01-17T02:51:19.306Z,24.83
2023-01-17T02:53:54.696Z,22.79
2023-01-17T02:56:24.821Z,22.88
2023-01-17T02:59:14.375Z,23.78
2023-01-17T03:01:47.760Z,23.54
2023-01-17T03:04:28.137Z,23.20
2023-01-17T03:07:01.090Z,23.78
2023-01-17T03:09:29.151Z,24.21
2023-01-17T03:11:57.859Z,23.46
2023-01-17T03:14:25.729Z,23.40
2023-01-17T03:16:53.131Z,23.39
2023-01-17T03:19:20.388Z,24.74
2023-01-17T03:21:49.450Z,24.55
2023-01-17T03:24:16.749Z,23.00
2023-01-17T03:26:45.085Z,24.64
2023-01-17T03:29:12.502Z,24.34
2023-01-17T03:31:39.860Z,23.66
2023-01-17T03:34:07.251Z,24.13
2023-01-17T03:36:34.518Z,23.96
2023-01-17T03:39:02.990Z,23.45
2023-01-17T03:41:30.198Z,23.97
2023-01-17T03:43:57.535Z,23.10
2023-01-17T03:46:25.800Z,23.78
2023-01-17T03:48:53.206Z,22.29
2023-01-17T03:51:20.926Z,22.35
2023-01-17T03:53:48.370Z,23.24
2023-01-17T03:56:15.649Z,24.43
2023-01-17T03:58:42.986Z,23.51
2023-01-17T04:01:10.610Z,23.34
2023-01-17T04:03:37.899Z,22.31
2023-01-17T04:06:05.347Z,23.50
2023-01-17T04:08:32.761Z,24.10
2023-01-17T04:11:00.017Z,23.43
2023-01-17T04:13:27.357Z,23.00
2023-01-17T04:15:54.542Z,22.28
2023-01-17T04:18:23.843Z,22.73
2023-01-17T04:20:51.717Z,23.91
2023-01-17T04:23:19.021Z,22.86
2023-01-17T04:25:46.382Z,24.74
2023-01-17T04:28:13.978Z,24.94
2023-01-17T04:30:41.399Z,23.65
2023-01-17T04:33:08.750Z,23.05
2023-01-17T04:35:36.295Z,22.95
2023-01-17T04:38:03.876Z,23.03
2023-01-17T04:40:31.167Z,23.78
2023-01-17T04:42:58.446Z,23.58
2023-01-17T04:45:25.844Z,24.39
2023-01-17T04:47:53.035Z,24.48
2023-01-17T04:50:20.378Z,24.61
2023-01-17T04:52:47.623Z,23.94
2023-01-17T04:55:15.615Z,24.07
2023-01-17T04:57:42.880Z,24.52
2023-01-17T05:00:10.584Z,23.69
2023-01-17T05:02:37.815Z,23.42
2023-01-17T05:05:05.486Z,23.92
2023-01-17T05:07:34.399Z,23.85
2023-01-17T05:10:03.135Z,24.71
2023-01-17T05:12:30.448Z,22.25
2023-01-17T05:14:57.715Z,24.19
2023-01-17T05:17:24.954Z,23.35
2023-01-17T05:19:52.595Z,23.42
2023-01-17T05:22:19.794Z,23.45
2023-01-17T05:24:47.725Z,24.18
2023-01-17T05:27:15.650Z,24.94
2023-01-17T05:29:42.995Z,23.98
2023-01-17T05:32:10.484Z,25.01
2023-01-17T05:34:37.928Z,23.16
2023-01-17T05:37:05.172Z,22.99
2023-01-17T05:39:32.447Z,23.41
2023-01-17T05:41:59.866Z,23.09
2023-01-17T05:44:27.848Z,23.96
2023-01-17T05:46:55.432Z,24.11
2023-01-17T05:49:23.067Z,25.00
2023-01-17T05:51:50.282Z,23.76
2023-01-17T05:54:17.745Z,24.34
2023-01-17T05:56:45.149Z,24.41
2023-01-17T05:59:14.203Z,24.17
2023-01-17T06:01:41.671Z,23.74
2023-01-17T06:04:09.018Z,24.57
2023-01-17T06:06:36.247Z,23.22
2023-01-17T06:09:03.475Z,24.10
2023-01-17T06:11:30.971Z,24.76
2023-01-17T06:13:58.149Z,25.21
2023-01-17T06:16:25.435Z,23.81
2023-01-17T06:18:52.719Z,24.07
2023-01-17T06:21:20.009Z,24.55
2023-01-17T06:23:47.356Z,23.45
2023-01-17T06:26:14.638Z,24.10
2023-01-17T06:28:41.920Z,24.53
2023-01-17T06:31:09.644Z,24.69
2023-01-17T06:33:37.155Z,24.89
2023-01-17T06:36:04.573Z,22.76
2023-01-17T06:38:31.876Z,24.13
2023-01-17T06:41:00.513Z,25.00
2023-01-17T06:43:28.739Z,23.85
2023-01-17T06:45:56.150Z,25.15
2023-01-17T06:48:23.497Z,25.80
2023-01-17T06:50:52.718Z,25.11
2023-01-17T06:53:20.039Z,24.14
2023-01-17T06:55:47.301Z,24.55
2023-01-17T06:58:14.596Z,23.92
2023-01-17T07:00:42.141Z,23.81
2023-01-17T07:03:22.695Z,25.35
2023-01-17T07:05:50.483Z,24.50
2023-01-17T07:08:18.127Z,25.10
2023-01-17T07:10:46.332Z,24.88
2023-01-17T07:13:14.125Z,25.70
2023-01-17T07:15:42.469Z,25.36
2023-01-17T07:18:09.869Z,24.99
2023-01-17T07:20:38.543Z,23.58
2023-01-17T07:23:06.813Z,24.15
2023-01-17T07:25:34.089Z,23.92
2023-01-17T07:28:01.449Z,26.20
2023-01-17T07:30:29.252Z,24.31
2023-01-17T07:32:56.631Z,26.24
2023-01-17T07:35:26.757Z,24.84
2023-01-17T07:37:54.377Z,24.18
2023-01-17T07:40:22.861Z,23.80
2023-01-17T07:42:50.179Z,24.44
2023-01-17T07:45:17.680Z,25.40
2023-01-17T07:47:45.194Z,25.15
2023-01-17T07:50:13.706Z,25.00
2023-01-17T07:52:41.427Z,24.82
2023-01-17T07:55:09.094Z,23.07
2023-01-17T07:57:36.411Z,24.91
2023-01-17T08:00:04.210Z,24.98
2023-01-17T08:02:39.531Z,24.59
2023-01-17T08:05:07.019Z,23.64
2023-01-17T08:07:34.608Z,24.01
2023-01-17T08:10:02.181Z,24.76
2023-01-17T08:12:29.678Z,24.38
2023-01-17T08:14:57.069Z,25.55
2023-01-17T08:17:24.311Z,24.48
2023-01-17T08:19:52.321Z,24.00
2023-01-17T08:22:19.683Z,24.25
2023-01-17T08:24:47.613Z,25.31
2023-01-17T08:27:15.317Z,24.01
2023-01-17T08:29:47.098Z,25.59
2023-01-17T08:32:14.643Z,25.00
2023-01-17T08:34:42.099Z,25.20
2023-01-17T08:37:09.739Z,25.15
2023-01-17T08:39:36.941Z,24.31
2023-01-17T08:42:04.305Z,24.57
2023-01-17T08:44:31.896Z,24.59
2023-01-17T08:46:59.388Z,25.85
2023-01-17T08:49:28.693Z,24.75
2023-01-17T08:51:56.161Z,25.04
2023-01-17T08:54:23.559Z,25.50
2023-01-17T08:56:52.866Z,25.84
2023-01-17T08:59:20.237Z,24.38
2023-01-17T09:01:47.576Z,24.80
2023-01-17T09:04:15.953Z,25.21
2023-01-17T09:06:45.531Z,24.56
2023-01-17T09:09:13.775Z,24.96
2023-01-17T09:11:40.997Z,24.73
2023-01-17T09:14:09.466Z,23.29
2023-01-17T09:16:36.763Z,22.83
2023-01-17T09:19:03.982Z,22.18
2023-01-17T09:21:31.243Z,22.33
2023-01-17T09:23:58.555Z,22.22
2023-01-17T09:26:27.262Z,22.39
2023-01-17T09:28:54.633Z,22.35
2023-01-17T09:31:23.225Z,21.99
2023-01-17T09:33:51.164Z,21.92
2023-01-17T09:36:18.686Z,21.75
2023-01-17T09:38:46.501Z,21.48
2023-01-17T09:41:28.256Z,21.42
2023-01-17T09:44:01.406Z,21.91
2023-01-17T09:46:31.261Z,21.52
2023-01-17T09:49:06.292Z,21.50
2023-01-17T09:51:33.778Z,21.56
2023-01-17T09:54:02.521Z,21.60
2023-01-17T09:56:37.353Z,21.48
2023-01-17T09:59:32.811Z,21.70
2023-01-17T10:02:13.004Z,21.04
2023-01-17T10:05:01.661Z,21.33
2023-01-17T10:07:38.497Z,21.58
2023-01-17T10:10:17.584Z,21.13
2023-01-17T10:12:56.401Z,21.44
2023-01-17T10:15:31.231Z,21.04
2023-01-17T10:18:07.401Z,21.28
2023-01-17T10:20:50.489Z,21.24
2023-01-17T10:23:30.093Z,20.87
2023-01-17T10:26:01.990Z,22.25
2023-01-17T10:28:35.383Z,21.58
2023-01-17T10:31:02.804Z,21.34
2023-01-17T10:33:36.390Z,21.82
2023-01-17T10:36:07.781Z,22.44
2023-01-17T10:38:36.676Z,21.80
2023-01-17T10:41:10.090Z,23.04
2023-01-17T10:43:40.577Z,23.19
2023-01-17T10:46:14.166Z,24.11
2023-01-17T10:48:46.690Z,22.53
2023-01-17T10:51:32.784Z,22.95
2023-01-17T10:54:01.785Z,23.11
2023-01-17T10:56:29.953Z,23.25
2023-01-17T10:59:18.581Z,24.32
2023-01-17T11:01:45.994Z,24.12
2023-01-17T11:04:30.501Z,24.41
2023-01-17T11:07:12.490Z,23.97
2023-01-17T11:10:00.151Z,23.95
2023-01-17T11:12:47.191Z,23.99
2023-01-17T11:15:15.825Z,24.03
2023-01-17T11:17:48.969Z,24.41
2023-01-17T11:20:22.867Z,23.95
2023-01-17T11:23:08.266Z,23.88
2023-01-17T11:25:35.713Z,23.69
2023-01-17T11:28:05.669Z,23.07
2023-01-17T11:30:33.054Z,23.42
2023-01-17T11:33:04.050Z,23.24
2023-01-17T11:35:32.711Z,23.20
2023-01-17T11:37:59.971Z,25.37
2023-01-17T11:40:37.083Z,24.35
2023-01-17T11:43:18.590Z,24.57
2023-01-17T11:45:46.963Z,24.06
2023-01-17T11:48:16.074Z,23.72
2023-01-17T11:50:57.704Z,24.68
2023-01-17T11:53:25.828Z,24.41
2023-01-17T11:55:54.879Z,23.82
2023-01-17T11:58:24.243Z,24.04
2023-01-17T12:00:58.634Z,24.38
2023-01-17T12:03:29.709Z,24.50
2023-01-17T12:06:07.629Z,24.34
2023-01-17T12:08:54.628Z,25.11
2023-01-17T12:11:24.745Z,23.62
2023-01-17T12:14:03.412Z,24.12
2023-01-17T12:16:36.483Z,23.87
2023-01-17T12:19:22.424Z,24.34
2023-01-17T12:22:06.605Z,23.95
2023-01-17T12:24:52.330Z,24.02
2023-01-17T12:27:19.513Z,24.39
2023-01-17T12:29:49.880Z,23.85
2023-01-17T12:32:29.166Z,23.96
2023-01-17T12:35:00.876Z,23.68
2023-01-17T12:37:38.669Z,23.97
2023-01-17T12:40:18.421Z,24.06
2023-01-17T12:43:05.988Z,23.99
2023-01-17T12:45:36.516Z,23.10
2023-01-17T12:48:11.262Z,23.19
2023-01-17T12:50:57.337Z,23.38
2023-01-17T12:53:44.388Z,23.70
2023-01-17T12:56:18.952Z,22.97
2023-01-17T12:58:49.227Z,23.46
2023-01-17T13:01:32.214Z,22.91
2023-01-17T13:04:11.570Z,22.78
2023-01-17T13:06:44.875Z,23.53
2023-01-17T13:09:14.294Z,23.48
2023-01-17T13:12:01.766Z,23.66
2023-01-17T13:14:29.181Z,24.20
2023-01-17T13:17:19.416Z,24.39
2023-01-17T13:19:52.676Z,23.81
2023-01-17T13:22:23.044Z,24.35
2023-01-17T13:24:50.505Z,23.44
2023-01-17T13:27:39.254Z,22.35
2023-01-17T13:30:19.562Z,23.43
2023-01-17T13:33:10.292Z,22.92
2023-01-17T13:35:42.010Z,23.28
2023-01-17T13:38:27.783Z,23.92
2023-01-17T13:41:01.448Z,24.35
2023-01-17T13:43:30.760Z,24.38
2023-01-17T13:45:59.878Z,23.53
2023-01-17T13:48:28.700Z,24.36
2023-01-17T13:51:09.112Z,24.59
2023-01-17T13:53:39.281Z,23.99
2023-01-17T13:56:19.019Z,23.51
2023-01-17T13:58:50.312Z,23.41
2023-01-17T14:01:23.534Z,23.97
2023-01-17T14:03:51.116Z,23.62
2023-01-17T14:06:44.954Z,23.34
2023-01-17T14:09:38.333Z,22.63
2023-01-17T14:12:11.397Z,23.08
2023-01-17T14:14:44.486Z,24.05
2023-01-17T14:21:04.368Z,24.15
2023-01-17T14:23:35.542Z,24.31
2023-01-17T14:26:13.725Z,23.99
2023-01-17T14:28:41.986Z,24.48
2023-01-17T14:35:23.263Z,23.72
2023-01-17T14:37:54.294Z,22.91
2023-01-17T14:40:26.587Z,22.68
2023-01-17T14:42:59.467Z,22.46
2023-01-17T14:45:28.800Z,22.08
2023-01-17T14:48:01.271Z,22.76
2023-01-17T14:50:47.678Z,23.07
2023-01-17T14:53:22.687Z,23.11
2023-01-17T14:55:52.991Z,22.48
2023-01-17T14:58:21.723Z,23.24
2023-01-17T15:00:50.291Z,22.17
2023-01-17T15:03:17.944Z,23.40
2023-01-17T15:05:47.339Z,23.00
2023-01-17T15:08:16.672Z,23.18
2023-01-17T15:10:51.725Z,22.83
2023-01-17T15:13:27.743Z,23.41
2023-01-17T15:16:07.647Z,22.91
2023-01-17T15:18:41.672Z,22.31
2023-01-17T15:21:13.465Z,22.64
2023-01-17T15:23:43.655Z,23.21
2023-01-17T15:26:13.011Z,22.31
2023-01-17T15:28:40.859Z,24.12
2023-01-17T15:31:10.491Z,23.58
2023-01-17T15:33:39.377Z,22.81
2023-01-17T15:36:08.810Z,22.85
2023-01-17T15:38:39.293Z,23.10
2023-01-17T15:41:09.962Z,22.73
2023-01-17T15:43:38.127Z,23.30
2023-01-17T15:46:05.541Z,23.45
2023-01-17T15:48:44.469Z,24.03
2023-01-17T15:51:13.030Z,23.23
2023-01-17T15:53:41.657Z,22.48
2023-01-17T15:56:27.392Z,23.05
2023-01-17T15:58:54.940Z,22.55
2023-01-17T16:01:26.914Z,22.97
2023-01-17T16:03:54.717Z,22.75
2023-01-17T16:06:29.743Z,22.89
2023-01-17T16:08:57.005Z,22.70
2023-01-17T16:11:24.299Z,22.70
2023-01-17T16:13:52.087Z,22.65
2023-01-17T16:16:23.755Z,23.24
2023-01-17T16:18:57.715Z,23.85
2023-01-17T16:21:26.825Z,23.51
2023-01-17T16:23:54.188Z,23.32
2023-01-17T16:26:21.577Z,23.41
2023-01-17T16:28:49.365Z,24.22
2023-01-17T16:31:17.486Z,23.80
2023-01-17T16:33:46.232Z,22.90
2023-01-17T16:36:15.273Z,22.91
2023-01-17T16:38:43.376Z,23.38
2023-01-17T16:41:10.975Z,23.39
2023-01-17T16:43:38.303Z,23.13
2023-01-17T16:46:06.059Z,22.97
2023-01-17T16:48:33.465Z,23.11
2023-01-17T16:51:04.769Z,22.83
2023-01-17T16:53:32.077Z,22.85
2023-01-17T16:56:05.535Z,22.96
2023-01-17T16:58:32.899Z,23.20
2023-01-17T17:01:00.435Z,23.57
2023-01-17T17:03:27.814Z,22.70
2023-01-17T17:05:58.914Z,23.62
2023-01-17T17:08:29.162Z,22.55
2023-01-17T17:11:06.542Z,23.61
2023-01-17T17:13:36.917Z,23.27
2023-01-17T17:16:09.305Z,23.23
2023-01-17T17:18:36.899Z,22.80
2023-01-17T17:21:04.164Z,22.26
2023-01-17T17:23:31.565Z,23.59
2023-01-17T17:25:58.878Z,22.94
2023-01-17T17:28:26.144Z,22.93
2023-01-17T17:31:04.024Z,22.92
2023-01-17T17:33:31.500Z,22.82
2023-01-17T17:36:02.877Z,23.22
2023-01-17T17:38:30.363Z,24.10
2023-01-17T17:41:03.319Z,22.68
2023-01-17T17:43:30.722Z,24.19
2023-01-17T17:45:57.993Z,22.54
2023-01-17T17:48:25.378Z,23.23
2023-01-17T17:50:57.227Z,23.53
2023-01-17T17:53:26.580Z,24.77
2023-01-17T17:55:54.046Z,23.70
2023-01-17T17:58:21.967Z,23.77
2023-01-17T18:00:49.625Z,23.24
2023-01-17T18:03:16.870Z,24.13
2023-01-17T18:05:46.909Z,23.99
2023-01-17T18:08:14.327Z,23.44
2023-01-17T18:10:42.604Z,23.56
2023-01-17T18:13:10.173Z,23.29
2023-01-17T18:15:37.425Z,23.67
2023-01-17T18:18:04.805Z,23.09
2023-01-17T18:20:32.075Z,23.60
2023-01-17T18:22:59.326Z,24.78
2023-01-17T18:25:26.515Z,23.33
2023-01-17T18:27:54.029Z,23.08
2023-01-17T18:30:21.409Z,23.86
2023-01-17T18:32:49.951Z,22.48
2023-01-17T18:35:17.285Z,24.38
2023-01-17T18:37:44.510Z,24.16
2023-01-17T18:40:11.871Z,23.77
2023-01-17T18:42:39.315Z,24.68
2023-01-17T18:45:06.808Z,23.76
2023-01-17T18:47:34.187Z,23.74
2023-01-17T18:50:01.606Z,23.62
2023-01-17T18:52:28.997Z,22.53
2023-01-17T18:54:56.262Z,23.25
2023-01-17T18:57:24.245Z,23.02
2023-01-17T18:59:51.503Z,24.66
2023-01-17T19:02:20.081Z,24.33
2023-01-17T19:04:47.999Z,24.08
2023-01-17T19:07:15.915Z,24.00
2023-01-17T19:09:44.518Z,24.16
2023-01-17T19:12:11.875Z,24.07
2023-01-17T19:14:39.046Z,24.96
2023-01-17T19:17:06.390Z,25.63
2023-01-17T19:19:33.718Z,24.76
2023-01-17T19:22:00.988Z,25.62
2023-01-17T19:24:28.245Z,25.06
2023-01-17T19:26:56.298Z,23.93
2023-01-17T19:29:23.610Z,23.41
2023-01-17T19:31:50.977Z,22.88
2023-01-17T19:34:20.023Z,23.60
2023-01-17T19:36:47.704Z,24.32
2023-01-17T19:39:14.978Z,23.81
2023-01-17T19:41:43.673Z,24.38
2023-01-17T19:44:11.944Z,23.97
2023-01-17T19:46:39.869Z,23.23
2023-01-17T19:49:08.000Z,24.05
2023-01-17T19:51:36.072Z,23.92
2023-01-17T19:54:07.092Z,24.12
2023-01-17T19:56:35.737Z,24.69
2023-01-17T19:59:04.239Z,24.51
2023-01-17T20:01:32.567Z,24.81
2023-01-17T20:04:01.073Z,24.05
2023-01-17T20:06:29.704Z,24.53
2023-01-17T20:08:57.569Z,23.51
2023-01-17T20:11:25.594Z,24.20
2023-01-17T20:13:54.408Z,23.71
2023-01-17T20:16:22.223Z,23.47
2023-01-17T20:18:49.881Z,23.17
2023-01-17T20:21:18.748Z,24.02
2023-01-17T20:23:50.712Z,23.73
2023-01-17T20:26:20.007Z,22.76
2023-01-17T20:28:48.966Z,24.05
2023-01-17T20:31:17.955Z,24.23
2023-01-17T20:33:47.009Z,24.30
2023-01-17T20:36:15.495Z,24.47
2023-01-17T20:38:46.522Z,24.49
2023-01-17T20:41:16.977Z,23.72
2023-01-17T20:43:45.335Z,24.44
2023-01-17T20:46:13.252Z,23.49
2023-01-17T20:48:44.283Z,23.20
2023-01-17T20:51:11.962Z,21.93
2023-01-17T20:53:40.985Z,23.38
2023-01-17T20:56:14.807Z,23.07
2023-01-17T20:58:42.421Z,24.09
2023-01-17T21:01:10.855Z,22.64
2023-01-17T21:03:38.946Z,24.06
2023-01-17T21:06:07.527Z,24.83
2023-01-17T21:08:35.929Z,22.69
2023-01-17T21:11:03.756Z,23.94
2023-01-17T21:13:31.853Z,23.80
2023-01-17T21:15:59.421Z,22.88
2023-01-17T21:18:27.259Z,24.02
2023-01-17T21:20:54.557Z,22.66
2023-01-17T21:23:23.564Z,24.24
2023-01-17T21:25:55.756Z,23.79
2023-01-17T21:28:24.354Z,24.70
2023-01-17T21:30:52.204Z,23.52
2023-01-17T21:33:20.369Z,24.19
2023-01-17T21:35:47.562Z,24.08
2023-01-17T21:38:15.181Z,23.29
2023-01-17T21:40:42.754Z,23.49
2023-01-17T21:43:10.382Z,22.78
2023-01-17T21:45:41.382Z,24.27
2023-01-17T21:48:12.361Z,24.88
2023-01-17T21:50:39.668Z,23.22
2023-01-17T21:53:07.570Z,24.31
2023-01-17T21:55:53.433Z,23.97
2023-01-17T21:58:39.308Z,24.16
2023-01-17T22:01:16.109Z,23.68
2023-01-17T22:04:03.672Z,24.00
2023-01-17T22:06:34.382Z,23.56
2023-01-17T22:09:01.846Z,24.52
2023-01-17T22:11:30.525Z,24.21
2023-01-17T22:13:59.302Z,24.12
2023-01-17T22:16:26.860Z,23.55
2023-01-17T22:18:54.222Z,23.83
2023-01-17T22:21:22.721Z,23.21
2023-01-17T22:23:54.051Z,24.18
2023-01-17T22:26:22.585Z,24.19
2023-01-17T22:28:49.763Z,24.18
2023-01-17T22:31:21.287Z,24.30
2023-01-17T22:33:52.839Z,24.08
2023-01-17T22:36:20.803Z,24.18
2023-01-17T22:38:48.309Z,24.31
2023-01-17T22:41:17.168Z,24.03
2023-01-17T22:43:45.330Z,24.13
2023-01-17T22:46:14.312Z,23.80
2023-01-17T22:48:42.214Z,23.46
2023-01-17T22:51:10.938Z,22.97
2023-01-17T22:53:45.721Z,23.15
2023-01-17T22:56:14.562Z,23.84
2023-01-17T22:58:44.830Z,22.41
2023-01-17T23:01:13.604Z,23.69
2023-01-17T23:03:41.512Z,22.95
2023-01-17T23:06:09.113Z,24.38
2023-01-17T23:08:37.242Z,23.82
2023-01-17T23:11:42.563Z,24.58
2023-01-17T23:14:11.847Z,23.70
2023-01-17T23:16:58.913Z,23.71
2023-01-17T23:19:27.417Z,23.93
2023-01-17T23:22:14.834Z,23.72
2023-01-17T23:24:44.841Z,23.80
2023-01-17T23:27:36.374Z,23.80
2023-01-17T23:30:05.849Z,23.00
2023-01-17T23:32:33.196Z,23.16
2023-01-17T23:35:00.434Z,23.57
2023-01-17T23:37:47.576Z,22.93
2023-01-17T23:40:15.076Z,22.31
2023-01-17T23:43:01.074Z,22.75
2023-01-17T23:45:28.584Z,22.68
2023-01-17T23:47:55.896Z,23.14
2023-01-17T23:50:23.305Z,23.20
2023-01-17T23:52:50.526Z,23.08
2023-01-17T23:55:18.192Z,22.66
2023-01-17T23:57:45.484Z,23.17
